Time;durP1;ratioP1;P1;durP2;ratioP2;P2;SDS_P1;SDS_P2;PMS_P1;PMS_P2;Temp;Humidity;BMP_temperature;BMP_pressure;BME280_temperature;BME280_humidity;BME280_pressure;Samples;Min_cycle;Max_cycle;Signal;HPM_P1;HPM_P2
2024/01/13 00:00:48;;;;;;;9.18;3.28;;;3.40;99.90;;;;;;5103160;28;20078;-66
2024/01/13 00:03:14;;;;;;;8.30;2.78;;;3.40;99.90;;;;;;5103865;28;20039;-67
2024/01/13 00:05:40;;;;;;;12.27;3.55;;;3.40;99.90;;;;;;5105601;28;20067;-68
2024/01/13 00:08:05;;;;;;;9.82;2.35;;;3.40;99.90;;;;;;5102988;28;20050;-67
2024/01/13 00:10:32;;;;;;;10.38;2.97;;;3.40;99.90;;;;;;5102651;28;20043;-67
2024/01/13 00:12:57;;;;;;;8.63;2.33;;;3.40;99.90;;;;;;5101257;28;20099;-68
2024/01/13 00:15:23;;;;;;;9.48;2.88;;;3.40;99.90;;;;;;5133507;27;20143;-67
2024/01/13 00:17:49;;;;;;;7.47;2.67;;;3.40;99.90;;;;;;5083548;28;20044;-68
2024/01/13 00:20:14;;;;;;;6.28;1.88;;;3.40;99.90;;;;;;5103501;28;20090;-67
2024/01/13 00:22:47;;;;;;;10.35;2.50;;;4.20;99.90;;;;;;5103001;28;20042;-68
2024/01/13 00:25:14;;;;;;;7.55;1.83;;;3.40;99.90;;;;;;5068581;28;20564;-68
2024/01/13 00:27:40;;;;;;;10.82;2.78;;;3.40;99.90;;;;;;5069209;28;20101;-66
2024/01/13 00:30:06;;;;;;;10.65;2.13;;;3.70;99.90;;;;;;5103200;28;20404;-66
2024/01/13 00:32:32;;;;;;;7.60;2.03;;;3.40;99.90;;;;;;5104690;28;20032;-66
2024/01/13 00:34:58;;;;;;;8.27;1.95;;;3.40;99.90;;;;;;5103135;28;20507;-66
2024/01/13 00:37:24;;;;;;;14.25;2.70;;;3.40;99.90;;;;;;5086273;28;20091;-66
2024/01/13 00:39:49;;;;;;;12.77;2.60;;;3.40;99.90;;;;;;5103720;28;20043;-66
2024/01/13 00:42:15;;;;;;;9.45;2.17;;;3.40;99.90;;;;;;5085596;28;20051;-66
2024/01/13 00:44:41;;;;;;;7.55;2.40;;;3.40;99.90;;;;;;5086405;28;20070;-66
2024/01/13 00:47:06;;;;;;;10.95;2.20;;;4.10;99.90;;;;;;5086232;28;20035;-65
2024/01/13 00:49:32;;;;;;;8.50;2.03;;;3.30;99.90;;;;;;5103430;28;20036;-66
2024/01/13 00:51:58;;;;;;;9.32;2.45;;;3.30;99.90;;;;;;5102765;28;20472;-66
2024/01/13 00:54:24;;;;;;;12.65;2.17;;;3.30;99.90;;;;;;5104580;28;20040;-66
2024/01/13 00:56:49;;;;;;;10.98;2.45;;;3.30;99.90;;;;;;5102468;28;20519;-66
2024/01/13 00:59:15;;;;;;;7.60;1.92;;;3.30;99.90;;;;;;5102083;28;20050;-67
2024/01/13 01:01:41;;;;;;;11.25;2.38;;;3.30;99.90;;;;;;5102682;28;20062;-66
2024/01/13 01:04:07;;;;;;;9.18;2.08;;;3.30;99.90;;;;;;5103138;28;20058;-66
2024/01/13 01:06:32;;;;;;;10.80;2.90;;;3.50;99.90;;;;;;5103791;28;20036;-66
2024/01/13 01:08:58;;;;;;;11.95;2.50;;;3.30;99.90;;;;;;5102508;28;20681;-66
2024/01/13 01:11:24;;;;;;;9.32;2.40;;;3.30;99.90;;;;;;5103234;28;20532;-67
2024/01/13 01:13:53;;;;;;;12.13;2.88;;;3.30;99.90;;;;;;5102498;28;20126;-66
2024/01/13 01:16:19;;;;;;;13.45;2.85;;;3.30;99.90;;;;;;5086701;28;20042;-66
2024/01/13 01:18:44;;;;;;;10.02;2.72;;;3.30;99.90;;;;;;5102311;28;20048;-66
2024/01/13 01:21:11;;;;;;;8.90;2.78;;;3.30;99.90;;;;;;5102628;28;20111;-66
2024/01/13 01:23:37;;;;;;;9.45;2.80;;;3.30;99.90;;;;;;5103320;28;20051;-66
2024/01/13 01:26:03;;;;;;;6.72;2.58;;;3.30;99.90;;;;;;5102984;28;20036;-66
2024/01/13 01:28:29;;;;;;;9.38;3.20;;;3.30;99.90;;;;;;5104430;28;20040;-66
2024/01/13 01:30:54;;;;;;;7.90;2.58;;;3.50;99.90;;;;;;5101982;28;20044;-66
2024/01/13 01:33:23;;;;;;;7.93;2.95;;;3.20;99.90;;;;;;5103498;28;20031;-66
2024/01/13 01:35:48;;;;;;;12.43;3.13;;;3.30;99.90;;;;;;5103448;28;20047;-66
2024/01/13 01:38:14;;;;;;;6.70;2.53;;;3.30;99.90;;;;;;5103515;28;20701;-66
2024/01/13 01:40:41;;;;;;;7.57;2.72;;;3.30;99.90;;;;;;5102955;28;20059;-66
2024/01/13 01:43:07;;;;;;;8.93;2.70;;;3.30;99.90;;;;;;5102848;28;20046;-66
2024/01/13 01:45:33;;;;;;;11.32;3.28;;;3.20;99.90;;;;;;5102964;28;20473;-66
2024/01/13 01:48:01;;;;;;;10.15;2.50;;;3.20;99.90;;;;;;5085753;28;20044;-66
2024/01/13 01:50:27;;;;;;;8.70;2.80;;;3.30;99.90;;;;;;5100372;28;20043;-66
2024/01/13 01:52:52;;;;;;;10.55;3.10;;;3.20;99.90;;;;;;5105188;28;20077;-65
2024/01/13 01:55:18;;;;;;;9.23;2.80;;;3.20;99.90;;;;;;5072964;28;20576;-66
2024/01/13 01:57:44;;;;;;;10.02;2.45;;;3.50;99.90;;;;;;5105596;28;20039;-66
2024/01/13 02:00:11;;;;;;;7.05;2.50;;;3.20;99.90;;;;;;5087191;28;20051;-66
2024/01/13 02:02:36;;;;;;;6.43;2.70;;;3.20;99.90;;;;;;5087135;28;20075;-66
2024/01/13 02:05:03;;;;;;;8.10;2.72;;;3.30;99.90;;;;;;5105603;28;20083;-66
2024/01/13 02:07:31;;;;;;;5.75;2.20;;;3.20;99.90;;;;;;5104806;28;20066;-66
2024/01/13 02:09:56;;;;;;;8.23;2.42;;;3.20;99.90;;;;;;5088943;28;20039;-66
2024/01/13 02:12:22;;;;;;;7.22;2.17;;;3.20;99.90;;;;;;5102217;28;20416;-66
2024/01/13 02:14:48;;;;;;;9.18;2.28;;;3.30;99.90;;;;;;5105530;28;20476;-66
2024/01/13 02:17:14;;;;;;;6.93;2.30;;;3.20;99.90;;;;;;5105688;28;20036;-66
2024/01/13 02:19:39;;;;;;;9.10;2.30;;;3.30;99.90;;;;;;5104776;28;20407;-67
2024/01/13 02:22:05;;;;;;;11.82;2.40;;;3.30;99.90;;;;;;5085848;28;20044;-67
2024/01/13 02:24:31;;;;;;;8.70;2.25;;;3.30;99.90;;;;;;5105343;28;20079;-66
2024/01/13 02:26:56;;;;;;;10.00;2.28;;;3.30;99.90;;;;;;5105612;28;20050;-67
2024/01/13 02:29:22;;;;;;;10.02;2.30;;;3.30;99.90;;;;;;5088571;28;20036;-67
2024/01/13 02:31:48;;;;;;;8.73;2.45;;;3.30;99.90;;;;;;5086961;28;20130;-66
2024/01/13 02:34:13;;;;;;;9.20;2.13;;;3.30;99.90;;;;;;5105201;28;20028;-67
2024/01/13 02:36:39;;;;;;;9.52;2.30;;;3.30;99.90;;;;;;5087549;28;20117;-66
2024/01/13 02:39:05;;;;;;;8.48;2.10;;;3.30;99.90;;;;;;5135610;27;20048;-66
2024/01/13 02:41:31;;;;;;;7.18;2.15;;;3.20;99.90;;;;;;5104174;28;20112;-68
2024/01/13 02:43:56;;;;;;;8.50;2.20;;;3.30;99.90;;;;;;5105218;28;20119;-67
2024/01/13 02:46:22;;;;;;;8.07;2.20;;;3.50;99.90;;;;;;5105045;28;20047;-67
2024/01/13 02:48:52;;;;;;;5.88;2.00;;;3.50;99.90;;;;;;5104151;28;20052;-67
2024/01/13 02:51:18;;;;;;;12.25;2.85;;;3.30;99.90;;;;;;5087613;28;20075;-67
2024/01/13 02:53:44;;;;;;;9.10;2.25;;;3.30;99.90;;;;;;5088503;28;20083;-67
2024/01/13 02:56:10;;;;;;;9.60;2.38;;;3.30;99.90;;;;;;5088320;28;20052;-65
2024/01/13 02:58:36;;;;;;;8.25;2.10;;;3.30;99.90;;;;;;5086590;28;20043;-65
2024/01/13 03:01:06;;;;;;;10.50;2.33;;;3.30;99.90;;;;;;5102104;28;20076;-66
2024/01/13 03:03:36;;;;;;;9.37;2.30;;;3.30;99.90;;;;;;5104635;28;20039;-66
2024/01/13 03:06:03;;;;;;;10.45;2.25;;;3.20;99.90;;;;;;5104101;28;20047;-66
2024/01/13 03:08:29;;;;;;;10.27;2.03;;;3.30;99.90;;;;;;5106424;28;20130;-66
2024/01/13 03:10:55;;;;;;;6.93;2.17;;;3.50;99.90;;;;;;5105572;28;20172;-66
2024/01/13 03:13:21;;;;;;;9.63;1.98;;;3.80;99.90;;;;;;5105387;28;20039;-66
2024/01/13 03:15:47;;;;;;;6.25;1.50;;;3.20;99.90;;;;;;5105837;28;20051;-66
2024/01/13 03:18:12;;;;;;;8.10;1.90;;;3.40;99.90;;;;;;5104409;28;20434;-65
2024/01/13 03:20:38;;;;;;;8.00;1.75;;;3.20;99.90;;;;;;5104625;28;20052;-65
2024/01/13 03:23:04;;;;;;;6.18;1.90;;;3.80;99.90;;;;;;5105041;28;20043;-65
2024/01/13 03:25:29;;;;;;;6.88;1.90;;;3.20;99.90;;;;;;5088074;28;20028;-66
2024/01/13 03:27:55;;;;;;;6.40;1.60;;;3.20;99.90;;;;;;5088221;28;20439;-67
2024/01/13 03:30:21;;;;;;;7.63;2.05;;;3.20;99.90;;;;;;5086974;28;20063;-66
2024/01/13 03:32:47;;;;;;;6.32;1.80;;;4.00;99.90;;;;;;5087158;28;20075;-66
2024/01/13 03:35:12;;;;;;;8.52;2.00;;;3.20;99.90;;;;;;5087638;28;20048;-66
2024/01/13 03:37:38;;;;;;;5.55;1.77;;;3.30;99.90;;;;;;5104514;28;20051;-66
2024/01/13 03:40:04;;;;;;;5.40;1.98;;;3.20;99.90;;;;;;5104578;28;20042;-66
2024/01/13 03:42:30;;;;;;;7.07;2.20;;;3.20;99.90;;;;;;5104318;28;20058;-66
2024/01/13 03:44:56;;;;;;;9.05;1.85;;;3.40;99.90;;;;;;5104955;28;20047;-66
2024/01/13 03:47:22;;;;;;;8.32;2.05;;;3.20;99.90;;;;;;5103062;28;20055;-66
2024/01/13 03:49:48;;;;;;;7.70;2.10;;;3.20;99.90;;;;;;5103443;28;20664;-66
2024/01/13 03:52:14;;;;;;;6.75;2.17;;;3.30;99.90;;;;;;5105381;28;20046;-66
2024/01/13 03:54:41;;;;;;;7.95;2.25;;;3.20;99.90;;;;;;5103137;28;20424;-66
2024/01/13 03:57:07;;;;;;;8.80;2.58;;;4.00;99.90;;;;;;5105704;28;20160;-66
2024/01/13 03:59:33;;;;;;;9.80;2.17;;;3.20;99.90;;;;;;5103955;28;20126;-66
2024/01/13 04:01:58;;;;;;;8.95;2.60;;;3.20;99.90;;;;;;5103060;28;20051;-66
2024/01/13 04:04:24;;;;;;;6.00;2.53;;;3.20;99.90;;;;;;5103519;28;20051;-66
2024/01/13 04:06:50;;;;;;;7.82;2.92;;;3.20;99.90;;;;;;5103551;28;20032;-66
2024/01/13 04:09:16;;;;;;;8.15;2.65;;;3.20;99.90;;;;;;5087277;28;20054;-66
2024/01/13 04:11:42;;;;;;;10.07;2.78;;;3.40;99.90;;;;;;5103716;28;20054;-67
2024/01/13 04:14:08;;;;;;;14.50;3.10;;;3.20;99.90;;;;;;5103413;28;20051;-66
2024/01/13 04:16:33;;;;;;;8.55;2.70;;;3.30;99.90;;;;;;5087040;28;20548;-66
2024/01/13 04:18:59;;;;;;;9.68;2.67;;;3.20;99.90;;;;;;5086071;28;20047;-66
2024/01/13 04:21:25;;;;;;;7.47;2.70;;;3.20;99.90;;;;;;5103588;28;20047;-66
2024/01/13 04:23:51;;;;;;;6.95;2.92;;;3.30;99.90;;;;;;5102917;28;20054;-67
2024/01/13 04:26:23;;;;;;;9.45;3.20;;;3.20;99.90;;;;;;5101055;28;20039;-66
2024/01/13 04:28:49;;;;;;;11.48;3.38;;;3.30;99.90;;;;;;5103237;28;20052;-66
2024/01/13 04:31:15;;;;;;;9.25;3.03;;;3.40;99.90;;;;;;5103232;28;20050;-66
2024/01/13 04:33:40;;;;;;;6.75;2.35;;;3.30;99.90;;;;;;5102962;28;20054;-66
2024/01/13 04:36:06;;;;;;;8.07;2.58;;;3.30;99.90;;;;;;5086641;28;20043;-66
2024/01/13 04:38:32;;;;;;;8.65;2.75;;;3.30;99.90;;;;;;5102928;28;20039;-66
2024/01/13 04:40:57;;;;;;;6.50;2.47;;;3.30;99.90;;;;;;5103386;28;20039;-66
2024/01/13 04:43:23;;;;;;;8.77;2.88;;;3.30;99.90;;;;;;5103525;28;20126;-66
2024/01/13 04:45:49;;;;;;;8.75;2.38;;;3.30;99.90;;;;;;5103768;28;20101;-66
2024/01/13 04:48:18;;;;;;;7.90;2.65;;;3.30;99.90;;;;;;5102615;28;20052;-67
2024/01/13 04:50:44;;;;;;;5.70;2.42;;;3.30;99.90;;;;;;5104067;28;20491;-65
2024/01/13 04:53:10;;;;;;;9.00;2.75;;;3.30;99.90;;;;;;5101529;28;20040;-67
2024/01/13 04:55:36;;;;;;;9.73;2.65;;;3.30;99.90;;;;;;5104074;28;20047;-66
2024/01/13 04:58:01;;;;;;;7.15;2.28;;;3.60;99.90;;;;;;5102221;28;20440;-66
2024/01/13 05:00:28;;;;;;;8.27;3.13;;;3.30;99.90;;;;;;5102677;28;20043;-66
2024/01/13 05:02:53;;;;;;;7.97;2.75;;;3.30;99.90;;;;;;5102023;28;20180;-66
2024/01/13 05:05:19;;;;;;;9.63;2.33;;;3.30;99.90;;;;;;5102865;28;20538;-68
2024/01/13 05:07:45;;;;;;;8.75;2.78;;;3.50;99.90;;;;;;5103139;28;20079;-66
2024/01/13 05:10:11;;;;;;;4.72;2.10;;;3.30;99.90;;;;;;5103303;28;20051;-66
2024/01/13 05:12:37;;;;;;;6.53;2.20;;;3.70;99.90;;;;;;5103036;28;20044;-66
2024/01/13 05:15:03;;;;;;;7.32;1.98;;;3.30;99.90;;;;;;5103024;28;20039;-66
2024/01/13 05:17:29;;;;;;;7.22;2.28;;;3.30;99.90;;;;;;5101602;28;20404;-66
2024/01/13 05:19:55;;;;;;;9.15;2.10;;;3.40;99.90;;;;;;5102399;28;20035;-66
2024/01/13 05:22:24;;;;;;;7.80;2.15;;;3.30;99.90;;;;;;5104541;28;20123;-67
2024/01/13 05:24:49;;;;;;;5.82;2.00;;;3.30;99.90;;;;;;5098880;28;20036;-66
2024/01/13 05:27:15;;;;;;;6.38;1.85;;;3.30;99.90;;;;;;5105430;28;20503;-66
2024/01/13 05:29:41;;;;;;;5.65;1.88;;;3.30;99.90;;;;;;5108044;28;20043;-66
2024/01/13 05:32:07;;;;;;;5.82;1.95;;;3.30;99.90;;;;;;5106292;28;20065;-66
2024/01/13 05:34:33;;;;;;;4.57;1.95;;;3.30;99.90;;;;;;5089709;28;20059;-66
2024/01/13 05:36:58;;;;;;;7.63;2.35;;;3.30;99.90;;;;;;5106876;28;20043;-66
2024/01/13 05:39:24;;;;;;;5.78;1.90;;;3.40;99.90;;;;;;5105937;28;20046;-67
2024/01/13 05:41:53;;;;;;;7.15;2.50;;;3.20;99.90;;;;;;5106528;28;20040;-65
2024/01/13 05:44:19;;;;;;;6.28;2.13;;;3.40;99.90;;;;;;5089708;28;20809;-65
2024/01/13 05:46:44;;;;;;;8.55;2.35;;;3.30;99.90;;;;;;5089087;28;20032;-66
2024/01/13 05:49:10;;;;;;;7.60;1.98;;;3.30;99.90;;;;;;5106357;28;20407;-66
2024/01/13 05:51:36;;;;;;;5.53;1.88;;;3.30;99.90;;;;;;5106025;28;20043;-66
2024/01/13 05:54:02;;;;;;;4.90;1.60;;;3.30;99.90;;;;;;5086319;28;20031;-66
2024/01/13 05:56:30;;;;;;;5.93;1.58;;;3.30;99.90;;;;;;5105953;28;20493;-66
2024/01/13 05:58:55;;;;;;;4.43;1.63;;;3.30;99.90;;;;;;5105791;28;20055;-66
2024/01/13 06:01:24;;;;;;;8.45;1.83;;;3.50;99.90;;;;;;5107205;27;20039;-67
2024/01/13 06:03:51;;;;;;;6.45;1.42;;;3.20;99.90;;;;;;5107453;28;20043;-66
2024/01/13 06:06:17;;;;;;;4.32;1.50;;;3.50;99.90;;;;;;5106422;28;20126;-66
2024/01/13 06:08:43;;;;;;;7.85;1.90;;;3.30;99.90;;;;;;5105780;28;20086;-67
2024/01/13 06:11:09;;;;;;;6.40;1.58;;;3.20;99.90;;;;;;5106264;28;20055;-65
2024/01/13 06:13:35;;;;;;;6.85;1.73;;;3.30;99.90;;;;;;5088504;28;20061;-66
2024/01/13 06:16:00;;;;;;;8.45;1.58;;;3.30;99.90;;;;;;5106107;28;20558;-71
2024/01/13 06:18:26;;;;;;;3.33;1.50;;;4.10;99.90;;;;;;5105781;28;20178;-66
2024/01/13 06:20:52;;;;;;;7.85;1.48;;;3.30;99.90;;;;;;5105993;28;20043;-66
2024/01/13 06:23:18;;;;;;;4.28;1.42;;;3.30;99.90;;;;;;5107215;28;20099;-66
2024/01/13 06:25:44;;;;;;;6.18;1.55;;;3.30;99.90;;;;;;5106237;28;20047;-66
2024/01/13 06:28:09;;;;;;;4.03;1.33;;;3.40;99.90;;;;;;5105188;28;20039;-65
2024/01/13 06:30:35;;;;;;;4.43;1.25;;;3.30;99.90;;;;;;5105145;28;20491;-65
2024/01/13 06:33:02;;;;;;;8.07;1.15;;;3.30;99.90;;;;;;5104916;28;20073;-66
2024/01/13 06:35:28;;;;;;;3.20;1.13;;;3.30;99.90;;;;;;5105900;28;20051;-66
2024/01/13 06:37:53;;;;;;;3.33;1.02;;;3.80;99.90;;;;;;5087666;28;20040;-66
2024/01/13 06:40:19;;;;;;;3.85;0.98;;;3.30;99.90;;;;;;5101383;28;20116;-66
2024/01/13 06:42:45;;;;;;;2.53;1.15;;;3.30;99.90;;;;;;5103379;28;20053;-65
2024/01/13 06:45:10;;;;;;;3.47;1.00;;;3.30;99.90;;;;;;5106001;28;20044;-66
2024/01/13 06:47:36;;;;;;;3.33;1.00;;;3.30;99.90;;;;;;5104487;28;20176;-66
2024/01/13 06:50:03;;;;;;;4.78;1.40;;;3.40;99.90;;;;;;5084663;28;20043;-66
2024/01/13 06:52:29;;;;;;;4.70;1.33;;;3.30;99.90;;;;;;5104819;28;20062;-65
2024/01/13 06:54:54;;;;;;;3.75;1.20;;;3.30;99.90;;;;;;5096922;28;20043;-66
2024/01/13 06:57:23;;;;;;;3.90;1.30;;;3.30;99.90;;;;;;5096436;28;20067;-66
2024/01/13 06:59:49;;;;;;;4.53;1.20;;;3.30;99.90;;;;;;5075498;28;20048;-65
2024/01/13 07:02:15;;;;;;;3.90;1.35;;;3.30;99.90;;;;;;5099319;28;20416;-66
2024/01/13 07:04:40;;;;;;;7.55;1.50;;;3.30;99.90;;;;;;5084028;28;20054;-66
2024/01/13 07:07:06;;;;;;;4.38;1.25;;;3.50;99.90;;;;;;5093151;28;20032;-66
2024/01/13 07:09:32;;;;;;;4.97;1.38;;;3.30;99.90;;;;;;5100995;28;20031;-66
2024/01/13 07:11:58;;;;;;;8.13;2.20;;;3.30;99.90;;;;;;5101237;28;20035;-66
2024/01/13 07:14:24;;;;;;;4.43;1.50;;;3.30;99.90;;;;;;5101528;28;20055;-66
2024/01/13 07:16:49;;;;;;;6.38;1.60;;;3.30;99.90;;;;;;5102557;28;20047;-64
2024/01/13 07:19:15;;;;;;;6.35;2.15;;;3.30;99.90;;;;;;5101514;28;20051;-66
2024/01/13 07:21:42;;;;;;;9.57;2.60;;;3.40;99.90;;;;;;5102285;28;20092;-66
2024/01/13 07:24:11;;;;;;;8.68;1.90;;;3.30;99.90;;;;;;5104399;28;20144;-66
2024/01/13 07:26:41;;;;;;;6.43;2.10;;;3.30;99.90;;;;;;5103352;28;20446;-66
2024/01/13 07:29:07;;;;;;;9.00;2.55;;;3.40;99.90;;;;;;5104330;28;20028;-66
2024/01/13 07:31:33;;;;;;;11.88;3.40;;;3.30;99.90;;;;;;5102428;28;20044;-66
2024/01/13 07:34:00;;;;;;;9.52;3.42;;;3.30;99.90;;;;;;5083423;28;20047;-65
2024/01/13 07:36:25;;;;;;;10.73;4.07;;;3.40;99.90;;;;;;5136533;27;20044;-65
2024/01/13 07:38:51;;;;;;;11.07;3.80;;;3.40;99.90;;;;;;5102578;28;20043;-66
2024/01/13 07:41:17;;;;;;;15.02;4.38;;;3.40;99.90;;;;;;5103306;28;20036;-65
2024/01/13 07:43:45;;;;;;;14.35;4.47;;;3.40;99.90;;;;;;5087134;28;20047;-65
2024/01/13 07:46:12;;;;;;;15.95;5.13;;;3.40;99.90;;;;;;5103970;28;20345;-65
2024/01/13 07:48:38;;;;;;;12.75;5.25;;;3.40;99.90;;;;;;5103571;28;20050;-66
2024/01/13 07:51:05;;;;;;;14.48;5.22;;;3.40;99.90;;;;;;5100996;28;20055;-66
2024/01/13 07:53:31;;;;;;;16.08;5.45;;;3.50;99.90;;;;;;5102757;28;20073;-66
2024/01/13 07:55:57;;;;;;;16.60;6.45;;;3.40;99.90;;;;;;5099219;28;20043;-66
2024/01/13 07:58:23;;;;;;;15.38;7.20;;;3.40;99.90;;;;;;5095354;28;20122;-66
2024/01/13 08:00:48;;;;;;;21.70;8.55;;;3.40;99.90;;;;;;5096035;28;20654;-66
2024/01/13 08:03:14;;;;;;;22.15;9.45;;;3.40;99.90;;;;;;5100115;28;20040;-66
2024/01/13 08:05:40;;;;;;;27.20;10.50;;;3.40;99.90;;;;;;5127125;27;20180;-66
2024/01/13 08:08:07;;;;;;;23.98;11.43;;;3.40;99.90;;;;;;5101221;28;20090;-66
2024/01/13 08:10:41;;;;;;;29.52;13.48;;;3.40;99.90;;;;;;5064411;27;20475;-66
2024/01/13 08:13:07;;;;;;;30.52;14.05;;;3.40;99.90;;;;;;5061782;28;20135;-66
2024/01/13 08:15:33;;;;;;;34.63;15.43;;;3.40;99.90;;;;;;5067688;28;20159;-66
2024/01/13 08:17:59;;;;;;;43.40;19.02;;;3.40;99.90;;;;;;5074171;28;20386;-66
2024/01/13 08:20:24;;;;;;;38.88;17.60;;;3.40;99.90;;;;;;5072694;28;20044;-66
2024/01/13 08:22:50;;;;;;;42.65;18.58;;;3.40;99.90;;;;;;5075340;28;20476;-65
2024/01/13 08:25:16;;;;;;;45.60;19.73;;;3.40;99.90;;;;;;5052154;28;20048;-67
2024/01/13 08:27:42;;;;;;;48.28;21.63;;;3.40;99.90;;;;;;5076191;28;20706;-66
2024/01/13 08:30:08;;;;;;;43.17;21.73;;;3.40;99.90;;;;;;5074843;28;20067;-66
2024/01/13 08:32:34;;;;;;;47.75;22.35;;;3.40;99.90;;;;;;5073803;28;20048;-66
2024/01/13 08:35:00;;;;;;;44.47;22.70;;;3.50;99.90;;;;;;5067659;28;20111;-66
2024/01/13 08:37:26;;;;;;;49.80;23.33;;;3.40;99.90;;;;;;5072489;28;20048;-66
2024/01/13 08:39:51;;;;;;;54.08;24.40;;;3.40;99.90;;;;;;5075541;28;20412;-66
2024/01/13 08:42:17;;;;;;;42.40;22.05;;;3.40;99.90;;;;;;5076775;28;20039;-66
2024/01/13 08:44:43;;;;;;;47.95;23.98;;;3.40;99.90;;;;;;5056622;28;20055;-67
2024/01/13 08:47:11;;;;;;;57.15;25.83;;;3.40;99.90;;;;;;5072185;28;20972;-66
2024/01/13 08:49:39;;;;;;;51.15;24.58;;;3.40;99.90;;;;;;5075282;28;20040;-65
2024/01/13 08:52:05;;;;;;;51.45;26.45;;;3.40;99.90;;;;;;5068364;28;20127;-67
2024/01/13 08:54:31;;;;;;;59.03;27.55;;;3.40;99.90;;;;;;5067906;28;20481;-67
2024/01/13 08:56:57;;;;;;;58.15;27.88;;;3.40;99.90;;;;;;5058168;28;20048;-66
2024/01/13 08:59:23;;;;;;;64.95;29.52;;;3.40;99.90;;;;;;5055771;28;20745;-66
2024/01/13 09:01:49;;;;;;;67.88;29.77;;;3.40;99.90;;;;;;5070838;28;20650;-66
2024/01/13 09:04:14;;;;;;;59.70;28.45;;;3.40;99.90;;;;;;5052280;28;20188;-66
2024/01/13 09:06:40;;;;;;;63.22;29.27;;;3.40;99.90;;;;;;5048098;28;20904;-65
2024/01/13 09:09:06;;;;;;;74.22;30.48;;;3.40;99.90;;;;;;5089361;28;20045;-66
2024/01/13 09:11:31;;;;;;;64.88;31.70;;;3.40;99.90;;;;;;5065509;28;20075;-66
2024/01/13 09:13:57;;;;;;;75.60;34.55;;;3.40;99.90;;;;;;5051340;28;20736;-66
2024/01/13 09:16:23;;;;;;;72.55;34.92;;;3.40;99.90;;;;;;5052289;28;20056;-65
2024/01/13 09:18:48;;;;;;;75.65;33.60;;;3.40;99.90;;;;;;5067546;28;20056;-65
2024/01/13 09:21:17;;;;;;;71.50;37.45;;;3.40;99.90;;;;;;5059070;28;20040;-66
2024/01/13 09:23:43;;;;;;;77.13;35.70;;;3.40;99.90;;;;;;5055990;28;20051;-66
2024/01/13 09:26:09;;;;;;;70.97;35.20;;;3.40;99.90;;;;;;5055296;28;20472;-66
2024/01/13 09:28:35;;;;;;;73.57;37.20;;;3.40;99.90;;;;;;5058006;28;20731;-66
2024/01/13 09:31:00;;;;;;;72.13;35.72;;;3.40;99.90;;;;;;5055974;28;20047;-67
2024/01/13 09:33:26;;;;;;;79.68;37.17;;;3.40;99.90;;;;;;5055755;28;20064;-67
2024/01/13 09:35:52;;;;;;;71.97;35.63;;;3.40;99.90;;;;;;5055835;28;20055;-67
2024/01/13 09:38:17;;;;;;;72.78;36.63;;;3.40;99.90;;;;;;5055326;28;20051;-67
2024/01/13 09:40:43;;;;;;;68.15;35.70;;;3.80;99.90;;;;;;5042039;28;20051;-66
2024/01/13 09:43:23;;;;;;;76.95;37.38;;;3.40;99.90;;;;;;5055756;28;20050;-67
2024/01/13 09:45:50;;;;;;;70.05;36.30;;;3.70;99.90;;;;;;5044746;28;20052;-66
2024/01/13 09:48:19;;;;;;;75.65;37.03;;;3.40;99.90;;;;;;5058742;28;20055;-66
2024/01/13 09:50:55;;;;;;;69.60;36.58;;;3.50;99.90;;;;;;5057668;28;20049;-66
2024/01/13 09:53:34;;;;;;;74.93;37.22;;;3.50;99.90;;;;;;5056806;28;20063;-67
2024/01/13 09:56:12;;;;;;;71.57;34.97;;;3.40;99.90;;;;;;5074974;28;20553;-67
2024/01/13 09:58:39;;;;;;;75.13;34.60;;;3.70;99.90;;;;;;5073876;28;20033;-67
2024/01/13 10:01:06;;;;;;;71.00;33.72;;;3.50;99.90;;;;;;5058728;28;20124;-66
2024/01/13 10:03:32;;;;;;;70.78;33.53;;;3.50;99.90;;;;;;5044556;28;20076;-66
2024/01/13 10:05:59;;;;;;;67.72;33.20;;;3.50;99.90;;;;;;5046890;28;20079;-67
2024/01/13 10:08:32;;;;;;;61.85;32.88;;;3.50;99.90;;;;;;5044831;28;20039;-66
2024/01/13 10:11:02;;;;;;;60.88;31.15;;;3.50;99.90;;;;;;5083043;28;20054;-66
2024/01/13 10:13:27;;;;;;;59.47;30.92;;;3.50;99.90;;;;;;5039321;28;20528;-66
2024/01/13 10:15:54;;;;;;;55.25;28.52;;;3.50;99.90;;;;;;5059847;28;20045;-66
2024/01/13 10:18:21;;;;;;;53.80;29.25;;;3.50;99.90;;;;;;5058402;28;20517;-66
2024/01/13 10:20:47;;;;;;;57.30;27.02;;;3.50;99.90;;;;;;5047272;28;20053;-66
2024/01/13 10:23:13;;;;;;;53.83;25.80;;;3.70;99.90;;;;;;5041556;28;20699;-66
2024/01/13 10:25:39;;;;;;;48.00;25.15;;;3.60;99.90;;;;;;5042124;28;20078;-66
2024/01/13 10:28:04;;;;;;;52.72;24.73;;;3.60;99.90;;;;;;5042388;28;21628;-65
2024/01/13 10:30:31;;;;;;;48.70;25.35;;;3.60;99.90;;;;;;5043624;28;20132;-66
2024/01/13 10:33:00;;;;;;;45.55;23.02;;;3.60;99.90;;;;;;5083736;28;20044;-66
2024/01/13 10:35:29;;;;;;;45.72;23.73;;;3.60;99.90;;;;;;5050975;28;20545;-66
2024/01/13 10:37:58;;;;;;;50.50;24.52;;;3.60;99.90;;;;;;5035032;28;20048;-65
2024/01/13 10:40:27;;;;;;;48.65;24.80;;;3.70;99.90;;;;;;5055234;28;20044;-66
2024/01/13 10:42:57;;;;;;;44.95;22.55;;;3.70;99.90;;;;;;5057200;28;20131;-65
2024/01/13 10:45:24;;;;;;;43.03;21.27;;;4.00;99.90;;;;;;5054268;28;20044;-66
2024/01/13 10:48:00;;;;;;;43.30;22.25;;;3.70;99.90;;;;;;5060512;28;20218;-66
2024/01/13 10:50:26;;;;;;;40.17;20.95;;;3.70;99.90;;;;;;5034110;28;20045;-66
2024/01/13 10:53:00;;;;;;;42.38;20.50;;;3.70;99.90;;;;;;5054951;28;20059;-66
2024/01/13 10:55:28;;;;;;;43.88;20.30;;;3.70;99.90;;;;;;5055319;28;20558;-66
2024/01/13 10:57:55;;;;;;;43.28;20.42;;;3.70;99.90;;;;;;5043555;28;20460;-66
2024/01/13 11:00:22;;;;;;;44.65;20.00;;;3.80;99.90;;;;;;5043342;28;20094;-66
2024/01/13 11:02:48;;;;;;;42.35;18.20;;;3.80;99.90;;;;;;5039416;28;20394;-66
2024/01/13 11:05:15;;;;;;;37.28;18.60;;;3.80;99.90;;;;;;5057177;28;20603;-66
2024/01/13 11:07:41;;;;;;;36.17;18.25;;;4.40;99.90;;;;;;5058413;28;20047;-66
2024/01/13 11:10:17;;;;;;;39.72;18.95;;;3.90;99.90;;;;;;5055381;28;20045;-66
2024/01/13 11:12:55;;;;;;;42.20;18.45;;;3.90;99.90;;;;;;5053899;28;21170;-65
2024/01/13 11:15:56;;;;;;;36.10;15.88;;;4.70;99.90;;;;;;5054647;28;20084;-66
2024/01/13 11:18:22;;;;;;;39.22;17.40;;;4.00;99.90;;;;;;5043185;28;20118;-66
2024/01/13 11:21:03;;;;;;;41.15;17.58;;;4.00;99.90;;;;;;5053043;28;20075;-66
2024/01/13 11:23:36;;;;;;;;;;;4.00;99.90;;;;;;5039718;28;20173;-66
2024/01/13 11:26:02;;;;;;;28.20;13.02;;;4.00;99.90;;;;;;5052583;28;19928;-67
2024/01/13 11:28:51;;;;;;;30.27;13.40;;;4.10;99.90;;;;;;5051140;28;20105;-67
2024/01/13 11:31:36;;;;;;;35.50;12.52;;;4.10;99.90;;;;;;5053646;28;20394;-67
2024/01/13 11:34:04;;;;;;;28.17;13.25;;;4.10;99.90;;;;;;5054258;28;20686;-67
2024/01/13 11:36:33;;;;;;;30.67;12.00;;;4.20;99.90;;;;;;5056616;28;20102;-66
2024/01/13 11:39:00;;;;;;;22.85;10.43;;;4.20;99.90;;;;;;5037529;28;20118;-66
2024/01/13 11:41:44;;;;;;;25.92;10.35;;;4.20;99.90;;;;;;5050630;28;20405;-67
2024/01/13 11:44:10;;;;;;;21.70;9.82;;;4.20;99.90;;;;;;5034720;28;20191;-67
2024/01/13 11:47:01;;;;;;;20.17;8.73;;;4.20;99.90;;;;;;5027389;28;20045;-66
2024/01/13 11:49:34;;;;;;;22.23;9.68;;;4.20;99.90;;;;;;5044143;28;20048;-66
2024/01/13 11:52:02;;;;;;;16.42;9.00;;;4.20;99.90;;;;;;5059575;28;20060;-67
2024/01/13 11:54:30;;;;;;;17.77;8.05;;;4.30;99.90;;;;;;5021020;28;20063;-66
2024/01/13 11:57:00;;;;;;;19.02;8.88;;;4.30;99.90;;;;;;5025611;28;20048;-67
2024/01/13 11:59:26;;;;;;;18.17;8.98;;;4.30;99.90;;;;;;5044580;28;20157;-66
2024/01/13 12:01:56;;;;;;;18.92;8.82;;;4.30;99.90;;;;;;5030404;28;20141;-66
2024/01/13 12:04:25;;;;;;;20.10;8.27;;;4.30;99.90;;;;;;5057011;28;20102;-66
2024/01/13 12:06:53;;;;;;;19.55;8.15;;;4.60;99.90;;;;;;5055587;28;20048;-66
2024/01/13 12:09:24;;;;;;;19.42;7.80;;;4.30;99.90;;;;;;5039304;28;20774;-66
2024/01/13 12:11:58;;;;;;;18.55;7.57;;;4.40;99.90;;;;;;5050473;28;20053;-66
2024/01/13 12:14:28;;;;;;;20.80;7.20;;;4.40;99.90;;;;;;5050901;28;20174;-66
2024/01/13 12:16:55;;;;;;;17.40;8.05;;;4.40;99.90;;;;;;5052838;28;20127;-67
2024/01/13 12:19:22;;;;;;;19.92;7.35;;;4.40;99.90;;;;;;5054425;28;20501;-66
2024/01/13 12:21:48;;;;;;;20.20;7.55;;;4.40;99.90;;;;;;5039658;28;20713;-66
2024/01/13 12:24:15;;;;;;;17.40;6.75;;;4.50;99.90;;;;;;5055874;28;20086;-66
2024/01/13 12:26:41;;;;;;;16.33;6.20;;;4.40;99.90;;;;;;5037960;28;20308;-67
2024/01/13 12:29:08;;;;;;;13.23;6.32;;;4.50;99.90;;;;;;5084460;28;20155;-67
2024/01/13 12:31:34;;;;;;;14.13;6.07;;;4.70;99.90;;;;;;5042066;28;20041;-66
2024/01/13 12:34:16;;;;;;;13.55;5.90;;;4.50;99.90;;;;;;5040063;28;20045;-66
2024/01/13 12:36:42;;;;;;;11.18;4.85;;;4.50;99.90;;;;;;5056584;28;20047;-66
2024/01/13 12:39:18;;;;;;;13.15;4.70;;;4.60;99.90;;;;;;5057809;28;20059;-67
2024/01/13 12:41:45;;;;;;;12.10;4.57;;;4.50;99.90;;;;;;5056305;28;20110;-66
2024/01/13 12:44:11;;;;;;;12.45;3.72;;;4.50;99.90;;;;;;5056026;28;20111;-67
2024/01/13 12:46:37;;;;;;;15.05;3.40;;;4.70;99.90;;;;;;5053637;28;20599;-66
2024/01/13 12:49:18;;;;;;;12.07;3.75;;;4.50;99.90;;;;;;5039190;28;20171;-67